Time,TemperatureF,DewpointF,PressureIn,WindDirection,WindDirectionDegrees,WindSpeedMPH,WindSpeedGustMPH,Humidity,HourlyPrecipIn,Conditions,Clouds,dailyrainin,SoftwareType,DateUTC
2013-05-03 00:01:00,35.8,27.6,30.31,North,0,0.0,1.3,72,0.00,,,0.00,WUHU216HW,2013-05-03 05:01:00,
2013-05-03 00:06:00,35.8,27.6,30.31,NNW,338,0.4,1.3,72,0.00,,,0.00,WUHU216HW,2013-05-03 05:06:00,
2013-05-03 00:11:00,35.8,27.6,30.30,NNW,338,0.2,1.1,72,0.00,,,0.00,WUHU216HW,2013-05-03 05:11:00,
2013-05-03 00:16:00,35.6,27.5,30.30,NNW,338,0.2,1.1,72,0.00,,,0.00,WUHU216HW,2013-05-03 05:16:00,
2013-05-03 00:21:00,35.5,27.3,30.30,NNW,338,0.2,0.9,72,0.00,,,0.00,WUHU216HW,2013-05-03 05:21:00,
2013-05-03 00:26:00,35.5,27.3,30.30,North,0,1.1,1.1,72,0.00,,,0.00,WUHU216HW,2013-05-03 05:26:00,
2013-05-03 00:31:00,35.3,27.1,30.30,North,0,0.4,1.8,72,0.00,,,0.00,WUHU216HW,2013-05-03 05:31:00,
2013-05-03 00:37:00,35.3,27.1,30.30,NNE,23,0.9,1.8,72,0.00,,,0.00,WUHU216HW,2013-05-03 05:37:00,
2013-05-03 00:42:00,35.3,27.1,30.29,North,0,0.7,2.2,72,0.00,,,0.00,WUHU216HW,2013-05-03 05:42:00,
2013-05-03 00:47:00,35.3,27.5,30.29,NE,45,1.1,2.2,73,0.00,,,0.00,WUHU216HW,2013-05-03 05:47:00,
2013-05-03 00:52:00,35.3,27.1,30.29,NNE,23,0.9,1.8,72,0.00,,,0.00,WUHU216HW,2013-05-03 05:52:00,
2013-05-03 00:57:00,35.1,27.3,30.29,North,0,0.9,1.8,73,0.00,,,0.00,WUHU216HW,2013-05-03 05:57:00,
2013-05-03 01:02:00,34.9,27.1,30.29,NNE,23,1.6,1.8,73,0.00,,,0.00,WUHU216HW,2013-05-03 06:02:00,
2013-05-03 01:07:00,34.9,27.1,30.29,NE,45,2.0,2.5,73,0.00,,,0.00,WUHU216HW,2013-05-03 06:07:00,
2013-05-03 01:12:00,34.9,27.1,30.28,NNE,23,0.2,2.5,73,0.00,,,0.00,WUHU216HW,2013-05-03 06:12:00,
2013-05-03 01:17:00,34.7,26.9,30.28,North,0,0.0,2.2,73,0.00,,,0.00,WUHU216HW,2013-05-03 06:17:00,
2013-05-03 01:22:00,34.7,26.9,30.28,NNW,338,0.4,1.8,73,0.00,,,0.00,WUHU216HW,2013-05-03 06:22:00,
2013-05-03 01:27:00,34.6,26.7,30.28,NNW,338,0.2,1.8,73,0.00,,,0.00,WUHU216HW,2013-05-03 06:27:00,
2013-05-03 01:32:00,34.4,26.6,30.28,NNW,338,1.1,1.3,73,0.00,,,0.00,WUHU216HW,2013-05-03 06:32:00,
2013-05-03 01:37:00,34.0,25.8,30.27,NE,45,0.9,1.3,72,0.00,,,0.00,WUHU216HW,2013-05-03 06:37:00,
2013-05-03 01:42:00,33.7,25.5,30.27,NE,45,1.1,1.8,72,0.00,,,0.00,WUHU216HW,2013-05-03 06:42:00,
2013-05-03 01:47:00,33.7,25.5,30.27,NNE,23,0.9,2.0,72,0.00,,,0.00,WUHU216HW,2013-05-03 06:47:00,
2013-05-03 01:52:00,33.5,25.4,30.27,WNW,293,0.4,2.0,72,0.00,,,0.00,WUHU216HW,2013-05-03 06:52:00,
2013-05-03 01:57:00,33.5,25.7,30.27,NNE,23,0.0,1.3,73,0.00,,,0.00,WUHU216HW,2013-05-03 06:57:00,
2013-05-03 02:02:00,33.5,25.4,30.27,North,0,0.0,1.1,72,0.00,,,0.00,WUHU216HW,2013-05-03 07:02:00,
2013-05-03 02:07:00,33.5,25.4,30.26,NNW,338,1.6,1.6,72,0.00,,,0.00,WUHU216HW,2013-05-03 07:07:00,
2013-05-03 02:12:00,33.7,25.5,30.26,NNW,338,1.1,1.8,72,0.00,,,0.00,WUHU216HW,2013-05-03 07:12:00,
2013-05-03 02:16:00,33.7,25.5,30.26,WNW,293,0.0,1.8,72,0.00,,,0.00,WUHU216HW,2013-05-03 07:16:00,
2013-05-03 02:21:00,33.5,25.4,30.26,NNE,23,1.8,1.8,72,0.00,,,0.00,WUHU216HW,2013-05-03 07:21:00,
2013-05-03 02:26:00,33.5,25.4,30.25,NNE,23,1.8,1.8,72,0.00,,,0.00,WUHU216HW,2013-05-03 07:26:00,
2013-05-03 02:32:00,33.5,25.4,30.25,NNW,338,1.1,2.5,72,0.00,,,0.00,WUHU216HW,2013-05-03 07:32:00,
2013-05-03 02:37:00,33.3,25.2,30.25,WSW,248,0.7,2.5,72,0.00,,,0.00,WUHU216HW,2013-05-03 07:37:00,
2013-05-03 02:42:00,33.3,25.5,30.25,NNE,23,0.9,2.2,73,0.00,,,0.00,WUHU216HW,2013-05-03 07:42:00,
2013-05-03 02:47:00,32.9,25.2,30.25,NE,45,0.9,2.2,73,0.00,,,0.00,WUHU216HW,2013-05-03 07:47:00,
2013-05-03 02:52:00,32.8,24.7,30.25,WNW,293,0.7,2.0,72,0.00,,,0.00,WUHU216HW,2013-05-03 07:52:00,
2013-05-03 02:57:00,32.8,25.0,30.25,NE,45,2.7,2.7,73,0.00,,,0.00,WUHU216HW,2013-05-03 07:57:00,
2013-05-03 03:02:00,32.9,25.2,30.25,NNE,23,0.9,2.9,73,0.00,,,0.00,WUHU216HW,2013-05-03 08:02:00,
2013-05-03 03:07:00,32.9,25.2,30.25,NE,45,1.1,2.9,73,0.00,,,0.00,WUHU216HW,2013-05-03 08:07:00,
2013-05-03 03:12:00,32.9,25.2,30.24,NE,45,1.6,2.9,73,0.00,,,0.00,WUHU216HW,2013-05-03 08:12:00,
2013-05-03 03:17:00,32.9,25.2,30.24,East,90,1.6,2.9,73,0.00,,,0.00,WUHU216HW,2013-05-03 08:17:00,
2013-05-03 03:22:00,33.1,25.4,30.24,NNW,338,3.8,3.8,73,0.00,,,0.00,WUHU216HW,2013-05-03 08:22:00,
2013-05-03 03:27:00,33.1,25.4,30.24,NNE,23,2.2,3.8,73,0.00,,,0.00,WUHU216HW,2013-05-03 08:27:00,
2013-05-03 03:32:00,33.1,25.4,30.24,NNW,338,1.1,3.6,73,0.00,,,0.00,WUHU216HW,2013-05-03 08:32:00,
2013-05-03 03:37:00,33.1,25.4,30.23,NNW,338,1.3,3.6,73,0.00,,,0.00,WUHU216HW,2013-05-03 08:37:00,
2013-05-03 03:42:00,32.9,25.2,30.23,NNE,23,2.5,2.7,73,0.00,,,0.00,WUHU216HW,2013-05-03 08:42:00,
2013-05-03 03:47:00,32.8,25.0,30.22,WNW,293,1.1,2.7,73,0.00,,,0.00,WUHU216HW,2013-05-03 08:47:00,
2013-05-03 03:52:00,32.8,25.0,30.22,SSW,203,1.1,2.5,73,0.00,,,0.00,WUHU216HW,2013-05-03 08:52:00,
2013-05-03 03:57:00,32.6,24.8,30.22,WNW,293,0.9,2.9,73,0.00,,,0.00,WUHU216HW,2013-05-03 08:57:00,
2013-05-03 04:02:00,32.8,25.0,30.22,NNW,338,2.2,3.4,73,0.00,,,0.00,WUHU216HW,2013-05-03 09:02:00,
2013-05-03 04:07:00,32.8,25.0,30.22,WNW,293,0.9,3.4,73,0.00,,,0.00,WUHU216HW,2013-05-03 09:07:00,
2013-05-03 04:12:00,32.8,25.0,30.22,NE,45,1.1,3.4,73,0.00,,,0.00,WUHU216HW,2013-05-03 09:12:00,
2013-05-03 04:17:00,32.4,24.7,30.22,WSW,248,1.6,2.5,73,0.00,,,0.00,WUHU216HW,2013-05-03 09:17:00,
2013-05-03 04:18:00,32.4,24.7,30.22,West,270,1.8,1.8,73,0.00,,,0.00,WUHU216HW,2013-05-03 09:18:00,
2013-05-03 04:22:00,32.4,24.7,30.22,West,270,1.8,2.0,73,0.00,,,0.00,WUHU216HW,2013-05-03 09:22:00,
2013-05-03 04:27:00,32.4,24.7,30.22,West,270,1.8,1.8,73,0.00,,,0.00,WUHU216HW,2013-05-03 09:27:00,
2013-05-03 05:00:00,32.2,24.6,30.22,West,270,4.3,4.3,73,0.00,,,0.00,WUHU216HW,2013-05-03 10:00:00,
2013-05-03 05:05:00,32.2,24.6,30.22,NNW,338,0.7,4.3,73,0.00,,,0.00,WUHU216HW,2013-05-03 10:05:00,
2013-05-03 05:10:00,32.2,24.6,30.22,NNE,23,3.4,4.3,73,0.00,,,0.00,WUHU216HW,2013-05-03 10:10:00,
2013-05-03 05:15:00,32.0,24.4,30.23,NNW,338,1.1,3.4,73,0.00,,,0.00,WUHU216HW,2013-05-03 10:15:00,
2013-05-03 05:20:00,32.0,24.4,30.23,WNW,293,2.2,3.4,73,0.00,,,0.00,WUHU216HW,2013-05-03 10:20:00,
2013-05-03 05:25:00,32.0,24.4,30.23,NW,315,1.1,3.4,73,0.00,,,0.00,WUHU216HW,2013-05-03 10:25:00,
2013-05-03 05:30:00,31.9,24.2,30.23,South,180,1.8,3.4,73,0.00,,,0.00,WUHU216HW,2013-05-03 10:30:00,
2013-05-03 05:35:00,31.9,24.2,30.23,NNW,338,0.7,3.4,73,0.00,,,0.00,WUHU216HW,2013-05-03 10:35:00,
2013-05-03 05:40:00,31.7,24.0,30.22,North,0,2.7,3.4,73,0.00,,,0.00,WUHU216HW,2013-05-03 10:40:00,
2013-05-03 05:45:00,31.7,24.0,30.22,NW,315,2.2,2.9,73,0.00,,,0.00,WUHU216HW,2013-05-03 10:45:00,
2013-05-03 05:50:00,31.7,24.0,30.22,North,0,1.8,2.9,73,0.00,,,0.00,WUHU216HW,2013-05-03 10:50:00,
2013-05-03 05:55:00,31.7,24.0,30.22,North,0,1.8,2.9,73,0.00,,,0.00,WUHU216HW,2013-05-03 10:55:00,
2013-05-03 06:00:00,31.5,23.9,30.22,NW,315,2.2,2.2,73,0.00,,,0.00,WUHU216HW,2013-05-03 11:00:00,
2013-05-03 06:05:00,31.5,23.9,30.22,NW,315,2.2,2.2,73,0.00,,,0.00,WUHU216HW,2013-05-03 11:05:00,
2013-05-03 07:00:00,31.7,24.0,30.20,SSW,203,1.8,1.8,73,0.00,,,0.00,WUHU216HW,2013-05-03 12:00:00,
2013-05-03 07:05:00,32.4,25.0,30.21,WNW,293,2.0,4.0,74,0.00,,,0.00,WUHU216HW,2013-05-03 12:05:00,
2013-05-03 07:10:00,33.1,25.4,30.21,North,0,2.2,4.0,73,0.00,,,0.00,WUHU216HW,2013-05-03 12:10:00,
2013-05-03 07:15:00,33.3,25.5,30.20,NE,45,2.2,5.4,73,0.00,,,0.00,WUHU216HW,2013-05-03 12:15:00,
2013-05-03 07:20:00,33.3,25.5,30.21,NNE,23,2.5,5.4,73,0.00,,,0.00,WUHU216HW,2013-05-03 12:20:00,
2013-05-03 07:25:00,33.7,25.8,30.21,West,270,1.1,4.3,73,0.00,,,0.00,WUHU216HW,2013-05-03 12:25:00,
2013-05-03 07:30:00,33.8,26.0,30.21,ENE,68,2.0,4.3,73,0.00,,,0.00,WUHU216HW,2013-05-03 12:30:00,
2013-05-03 07:35:00,33.3,25.5,30.21,East,90,2.7,4.7,73,0.00,,,0.00,WUHU216HW,2013-05-03 12:35:00,
2013-05-03 07:40:00,32.9,25.2,30.22,West,270,1.3,4.7,73,0.00,,,0.00,WUHU216HW,2013-05-03 12:40:00,
2013-05-03 07:45:00,32.8,25.0,30.22,NNE,23,1.8,5.4,73,0.00,,,0.00,WUHU216HW,2013-05-03 12:45:00,
2013-05-03 07:50:00,32.6,24.8,30.21,NNW,338,2.5,6.3,73,0.00,,,0.00,WUHU216HW,2013-05-03 12:50:00,
2013-05-03 07:55:00,32.8,25.0,30.21,North,0,0.4,6.3,73,0.00,,,0.00,WUHU216HW,2013-05-03 12:55:00,
2013-05-03 08:00:00,32.8,25.0,30.21,North,0,0.4,3.8,73,0.00,,,0.00,WUHU216HW,2013-05-03 13:00:00,
2013-05-03 08:05:00,32.8,25.0,30.21,North,0,2.5,2.5,73,0.00,,,0.00,WUHU216HW,2013-05-03 13:05:00,
2013-05-03 09:00:00,36.4,28.5,30.20,East,90,4.7,4.7,73,0.00,,,0.00,WUHU216HW,2013-05-03 14:00:00,
2013-05-03 09:05:00,36.4,28.5,30.20,East,90,4.7,4.7,73,0.00,,,0.00,WUHU216HW,2013-05-03 14:05:00,
2013-05-03 10:00:00,38.3,29.8,30.17,ENE,68,3.4,3.4,71,0.00,,,0.00,WUHU216HW,2013-05-03 15:00:00,
2013-05-03 10:05:00,39.2,29.5,30.17,North,0,3.1,6.9,68,0.00,,,0.00,WUHU216HW,2013-05-03 15:05:00,
2013-05-03 10:10:00,39.1,29.4,30.16,North,0,5.8,7.8,68,0.00,,,0.00,WUHU216HW,2013-05-03 15:10:00,
2013-05-03 10:15:00,39.1,29.0,30.16,North,0,4.5,7.8,67,0.00,,,0.00,WUHU216HW,2013-05-03 15:15:00,
2013-05-03 10:20:00,40.0,29.4,30.15,West,270,2.5,7.8,66,0.00,,,0.00,WUHU216HW,2013-05-03 15:20:00,
2013-05-03 10:25:00,39.6,28.7,30.15,East,90,5.1,10.1,65,0.00,,,0.00,WUHU216HW,2013-05-03 15:25:00,
2013-05-03 10:30:00,39.8,29.3,30.15,North,0,3.4,10.1,66,0.00,,,0.00,WUHU216HW,2013-05-03 15:30:00,
2013-05-03 10:35:00,40.1,30.0,30.14,East,90,6.9,7.8,67,0.00,,,0.00,WUHU216HW,2013-05-03 15:35:00,
2013-05-03 10:40:00,40.1,28.9,30.14,ENE,68,6.3,7.2,64,0.00,,,0.00,WUHU216HW,2013-05-03 15:40:00,
2013-05-03 10:45:00,40.0,29.1,30.14,East,90,2.7,9.2,65,0.00,,,0.00,WUHU216HW,2013-05-03 15:45:00,
2013-05-03 10:50:00,40.7,29.8,30.14,North,0,4.7,9.2,65,0.00,,,0.00,WUHU216HW,2013-05-03 15:50:00,
2013-05-03 10:55:00,41.6,30.7,30.14,WSW,248,4.0,7.6,65,0.00,,,0.00,WUHU216HW,2013-05-03 15:55:00,
2013-05-03 11:00:00,41.4,29.7,30.14,NNE,23,2.7,7.6,63,0.00,,,0.00,WUHU216HW,2013-05-03 16:00:00,
2013-05-03 11:05:00,41.8,30.1,30.13,NNE,23,4.0,8.9,63,0.00,,,0.00,WUHU216HW,2013-05-03 16:05:00,
2013-05-03 11:10:00,41.6,29.9,30.13,East,90,1.8,9.2,63,0.00,,,0.00,WUHU216HW,2013-05-03 16:10:00,
2013-05-03 11:15:00,41.2,29.5,30.13,North,0,4.0,9.2,63,0.00,,,0.00,WUHU216HW,2013-05-03 16:15:00,
2013-05-03 11:20:00,42.5,30.7,30.13,NNW,338,4.9,8.3,63,0.00,,,0.00,WUHU216HW,2013-05-03 16:20:00,
2013-05-03 11:25:00,42.8,31.1,30.13,North,0,4.3,8.3,63,0.00,,,0.00,WUHU216HW,2013-05-03 16:25:00,
2013-05-03 11:30:00,43.0,29.6,30.13,NE,45,6.3,6.5,59,0.00,,,0.00,WUHU216HW,2013-05-03 16:30:00,
2013-05-03 11:35:00,42.5,30.0,30.13,NE,45,5.6,6.5,61,0.00,,,0.00,WUHU216HW,2013-05-03 16:35:00,
2013-05-03 11:40:00,42.1,30.0,30.13,NNE,23,7.4,7.4,62,0.00,,,0.00,WUHU216HW,2013-05-03 16:40:00,
2013-05-03 11:45:00,42.3,29.8,30.13,NNW,338,4.9,7.4,61,0.00,,,0.00,WUHU216HW,2013-05-03 16:45:00,
2013-05-03 11:50:00,42.7,30.9,30.13,ENE,68,4.0,7.4,63,0.00,,,0.00,WUHU216HW,2013-05-03 16:50:00,
2013-05-03 11:55:00,42.8,30.7,30.12,NNE,23,4.9,9.2,62,0.00,,,0.00,WUHU216HW,2013-05-03 16:55:00,
2013-05-03 12:00:00,42.7,29.7,30.12,NE,45,6.9,9.4,60,0.00,,,0.00,WUHU216HW,2013-05-03 17:00:00,
2013-05-03 12:05:00,43.2,31.1,30.12,ESE,113,4.7,9.4,62,0.00,,,0.00,WUHU216HW,2013-05-03 17:05:00,
2013-05-03 12:10:00,43.4,30.8,30.12,ENE,68,4.7,7.4,61,0.00,,,0.00,WUHU216HW,2013-05-03 17:10:00,
2013-05-03 12:15:00,43.6,30.6,30.12,NE,45,6.7,8.9,60,0.00,,,0.00,WUHU216HW,2013-05-03 17:15:00,
2013-05-03 12:20:00,43.7,30.8,30.12,WSW,248,3.1,8.9,60,0.00,,,0.00,WUHU216HW,2013-05-03 17:20:00,
2013-05-03 12:25:00,44.6,31.7,30.12,East,90,9.2,9.8,60,0.00,,,0.00,WUHU216HW,2013-05-03 17:25:00,
2013-05-03 12:30:00,44.6,31.7,30.12,North,0,3.1,9.8,60,0.00,,,0.00,WUHU216HW,2013-05-03 17:30:00,
2013-05-03 12:35:00,44.8,31.4,30.11,North,0,2.9,7.8,59,0.00,,,0.00,WUHU216HW,2013-05-03 17:35:00,
2013-05-03 12:40:00,44.8,31.9,30.11,NNE,23,8.1,8.1,60,0.00,,,0.00,WUHU216HW,2013-05-03 17:40:00,
2013-05-03 12:45:00,44.3,30.9,30.10,NNE,23,7.8,10.1,59,0.00,,,0.00,WUHU216HW,2013-05-03 17:45:00,
2013-05-03 12:50:00,44.5,31.5,30.10,West,270,3.8,10.3,60,0.00,,,0.00,WUHU216HW,2013-05-03 17:50:00,
2013-05-03 12:55:00,44.6,30.8,30.10,NE,45,6.3,10.3,58,0.00,,,0.00,WUHU216HW,2013-05-03 17:55:00,
2013-05-03 13:00:00,44.3,30.9,30.10,NNE,23,6.3,11.6,59,0.00,,,0.00,WUHU216HW,2013-05-03 18:00:00,
2013-05-03 13:05:00,44.8,31.4,30.10,NE,45,4.5,11.6,59,0.00,,,0.00,WUHU216HW,2013-05-03 18:05:00,
2013-05-03 13:10:00,44.8,31.4,30.09,NE,45,6.5,10.1,59,0.00,,,0.00,WUHU216HW,2013-05-03 18:10:00,
2013-05-03 13:15:00,44.8,31.4,30.09,ENE,68,9.4,10.5,59,0.00,,,0.00,WUHU216HW,2013-05-03 18:15:00,
2013-05-03 13:20:00,44.6,31.7,30.09,ENE,68,3.8,14.3,60,0.00,,,0.00,WUHU216HW,2013-05-03 18:20:00,
2013-05-03 13:25:00,45.4,31.4,30.08,ENE,68,5.4,14.3,58,0.00,,,0.00,WUHU216HW,2013-05-03 18:25:00,
2013-05-03 13:30:00,45.0,30.7,30.08,WNW,293,3.1,8.7,57,0.00,,,0.00,WUHU216HW,2013-05-03 18:30:00,
2013-05-03 13:35:00,45.2,30.8,30.08,WNW,293,2.5,8.5,57,0.00,,,0.00,WUHU216HW,2013-05-03 18:35:00,
2013-05-03 13:40:00,45.0,30.7,30.08,East,90,3.1,12.3,57,0.00,,,0.00,WUHU216HW,2013-05-03 18:40:00,
2013-05-03 13:45:00,45.0,31.6,30.08,NNE,23,4.3,12.3,59,0.00,,,0.00,WUHU216HW,2013-05-03 18:45:00,
2013-05-03 13:50:00,45.2,30.8,30.07,NNW,338,7.8,11.0,57,0.00,,,0.00,WUHU216HW,2013-05-03 18:50:00,
2013-05-03 13:55:00,45.5,32.0,30.07,NNE,23,6.3,7.8,59,0.00,,,0.00,WUHU216HW,2013-05-03 18:55:00,
2013-05-03 14:00:00,45.7,31.3,30.07,NNE,23,6.3,10.1,57,0.00,,,0.00,WUHU216HW,2013-05-03 19:00:00,
2013-05-03 14:05:00,45.7,31.8,30.07,NNE,23,3.4,10.1,58,0.00,,,0.00,WUHU216HW,2013-05-03 19:05:00,
2013-05-03 14:10:00,45.7,31.3,30.07,NNE,23,7.4,9.4,57,0.00,,,0.00,WUHU216HW,2013-05-03 19:10:00,
2013-05-03 14:15:00,45.7,32.2,30.07,NNW,338,5.6,9.4,59,0.00,,,0.00,WUHU216HW,2013-05-03 19:15:00,
2013-05-03 14:20:00,45.7,31.3,30.07,NE,45,7.4,10.5,57,0.00,,,0.00,WUHU216HW,2013-05-03 19:20:00,
2013-05-03 14:25:00,45.7,31.8,30.07,NNE,23,3.8,10.5,58,0.00,,,0.00,WUHU216HW,2013-05-03 19:25:00,
2013-05-03 14:30:00,45.9,31.5,30.07,NE,45,4.5,11.6,57,0.00,,,0.00,WUHU216HW,2013-05-03 19:30:00,
2013-05-03 14:35:00,45.7,31.8,30.07,NE,45,4.0,11.6,58,0.00,,,0.00,WUHU216HW,2013-05-03 19:35:00,
2013-05-03 14:40:00,45.7,31.3,30.06,NNE,23,6.0,9.6,57,0.00,,,0.00,WUHU216HW,2013-05-03 19:40:00,
2013-05-03 14:45:00,46.1,31.6,30.06,North,0,3.6,9.6,57,0.00,,,0.00,WUHU216HW,2013-05-03 19:45:00,
2013-05-03 14:50:00,46.3,31.8,30.06,NW,315,3.6,10.5,57,0.00,,,0.00,WUHU216HW,2013-05-03 19:50:00,
2013-05-03 14:55:00,46.1,31.6,30.05,ENE,68,7.8,10.5,57,0.00,,,0.00,WUHU216HW,2013-05-03 19:55:00,
2013-05-03 15:00:00,46.4,32.0,30.05,NNE,23,11.6,11.6,57,0.00,,,0.00,WUHU216HW,2013-05-03 20:00:00,
2013-05-03 15:05:00,46.3,31.8,30.05,North,0,7.6,11.6,57,0.00,,,0.00,WUHU216HW,2013-05-03 20:05:00,
2013-05-03 15:10:00,46.6,31.7,30.05,NNE,23,5.4,11.6,56,0.00,,,0.00,WUHU216HW,2013-05-03 20:10:00,
2013-05-03 15:15:00,46.3,31.8,30.05,North,0,7.6,9.2,57,0.00,,,0.00,WUHU216HW,2013-05-03 20:15:00,
2013-05-03 15:20:00,46.1,31.1,30.04,North,0,8.3,8.9,56,0.00,,,0.00,WUHU216HW,2013-05-03 20:20:00,
2013-05-03 15:25:00,46.3,31.3,30.04,ENE,68,7.4,8.9,56,0.00,,,0.00,WUHU216HW,2013-05-03 20:25:00,
2013-05-03 15:30:00,46.3,31.8,30.04,NE,45,5.4,9.2,57,0.00,,,0.00,WUHU216HW,2013-05-03 20:30:00,
2013-05-03 15:35:00,46.3,31.8,30.04,NNW,338,4.3,9.2,57,0.00,,,0.00,WUHU216HW,2013-05-03 20:35:00,
2013-05-03 15:40:00,46.3,31.8,30.04,NE,45,6.7,9.2,57,0.00,,,0.00,WUHU216HW,2013-05-03 20:40:00,
2013-05-03 15:45:00,46.4,32.0,30.04,NNE,23,6.9,9.2,57,0.00,,,0.00,WUHU216HW,2013-05-03 20:45:00,
2013-05-03 15:50:00,46.4,32.0,30.04,ENE,68,6.9,8.7,57,0.00,,,0.00,WUHU216HW,2013-05-03 20:50:00,
2013-05-03 15:55:00,45.9,31.5,30.04,ENE,68,4.9,8.9,57,0.00,,,0.00,WUHU216HW,2013-05-03 20:55:00,
2013-05-03 16:00:00,45.9,31.5,30.03,North,0,3.1,9.4,57,0.00,,,0.00,WUHU216HW,2013-05-03 21:00:00,
2013-05-03 16:05:00,45.9,32.0,30.03,NNE,23,6.5,9.4,58,0.00,,,0.00,WUHU216HW,2013-05-03 21:05:00,
2013-05-03 16:10:00,45.7,31.8,30.03,NNE,23,4.3,8.7,58,0.00,,,0.00,WUHU216HW,2013-05-03 21:10:00,
2013-05-03 16:15:00,45.7,31.8,30.03,East,90,7.2,8.7,58,0.00,,,0.00,WUHU216HW,2013-05-03 21:15:00,
2013-05-03 16:20:00,45.5,31.1,30.02,NE,45,8.5,9.2,57,0.00,,,0.00,WUHU216HW,2013-05-03 21:20:00,
2013-05-03 16:25:00,45.5,32.0,30.02,NE,45,6.0,9.2,59,0.00,,,0.00,WUHU216HW,2013-05-03 21:25:00,
2013-05-03 16:30:00,45.7,32.7,30.02,NNE,23,2.2,9.2,60,0.00,,,0.00,WUHU216HW,2013-05-03 21:30:00,
2013-05-03 16:35:00,45.9,32.4,30.02,North,0,3.4,9.2,59,0.00,,,0.00,WUHU216HW,2013-05-03 21:35:00,
2013-05-03 16:40:00,45.7,32.7,30.01,North,0,4.7,9.4,60,0.00,,,0.00,WUHU216HW,2013-05-03 21:40:00,
2013-05-03 16:45:00,45.7,32.2,30.01,North,0,6.9,9.8,59,0.00,,,0.00,WUHU216HW,2013-05-03 21:45:00,
2013-05-03 16:50:00,45.7,32.2,30.01,North,0,8.3,9.8,59,0.00,,,0.00,WUHU216HW,2013-05-03 21:50:00,
2013-05-03 16:55:00,45.7,32.2,30.01,North,0,6.3,9.4,59,0.00,,,0.00,WUHU216HW,2013-05-03 21:55:00,
2013-05-03 16:59:00,45.7,32.7,30.01,North,0,3.8,8.3,60,0.00,,,0.00,WUHU216HW,2013-05-03 21:59:00,
2013-05-03 17:04:00,45.5,32.0,30.01,NNE,23,6.3,8.1,59,0.00,,,0.00,WUHU216HW,2013-05-03 22:04:00,
2013-05-03 17:09:00,45.4,31.9,30.01,North,0,4.7,8.1,59,0.00,,,0.00,WUHU216HW,2013-05-03 22:09:00,
2013-05-03 17:14:00,45.5,32.5,30.01,NNE,23,5.6,8.1,60,0.00,,,0.00,WUHU216HW,2013-05-03 22:14:00,
2013-05-03 17:19:00,45.4,31.9,30.01,NNE,23,4.0,6.7,59,0.00,,,0.00,WUHU216HW,2013-05-03 22:19:00,
2013-05-03 17:24:00,45.7,31.8,30.01,North,0,10.5,10.5,58,0.00,,,0.00,WUHU216HW,2013-05-03 22:24:00,
2013-05-03 17:29:00,45.5,32.0,30.00,North,0,5.4,10.5,59,0.00,,,0.00,WUHU216HW,2013-05-03 22:29:00,
2013-05-03 17:34:00,45.4,31.9,30.00,NNE,23,7.6,10.5,59,0.00,,,0.00,WUHU216HW,2013-05-03 22:34:00,
2013-05-03 17:39:00,45.5,32.0,30.00,NNE,23,4.5,9.8,59,0.00,,,0.00,WUHU216HW,2013-05-03 22:39:00,
2013-05-03 17:44:00,45.5,32.0,30.00,NNE,23,6.3,8.5,59,0.00,,,0.00,WUHU216HW,2013-05-03 22:44:00,
2013-05-03 17:49:00,45.7,31.8,30.00,North,0,4.7,7.6,58,0.00,,,0.00,WUHU216HW,2013-05-03 22:49:00,
2013-05-03 17:55:00,45.5,32.0,30.00,NNE,23,4.3,9.4,59,0.00,,,0.00,WUHU216HW,2013-05-03 22:55:00,
2013-05-03 17:59:00,45.5,32.5,30.00,NE,45,4.5,9.4,60,0.00,,,0.00,WUHU216HW,2013-05-03 22:59:00,
2013-05-03 18:05:00,45.4,31.9,30.01,NNE,23,8.9,8.9,59,0.00,,,0.00,WUHU216HW,2013-05-03 23:05:00,
2013-05-03 18:09:00,45.4,31.9,30.00,North,0,3.8,8.9,59,0.00,,,0.00,WUHU216HW,2013-05-03 23:09:00,
2013-05-03 18:15:00,45.4,31.4,30.00,NE,45,4.7,9.2,58,0.00,,,0.00,WUHU216HW,2013-05-03 23:15:00,
2013-05-03 18:20:00,45.5,31.6,30.01,NNE,23,6.9,9.2,58,0.00,,,0.00,WUHU216HW,2013-05-03 23:20:00,
2013-05-03 18:25:00,45.7,32.7,30.01,NNW,338,2.5,7.2,60,0.00,,,0.00,WUHU216HW,2013-05-03 23:25:00,
2013-05-03 18:29:00,45.7,31.8,30.01,NNE,23,4.9,6.9,58,0.00,,,0.00,WUHU216HW,2013-05-03 23:29:00,
2013-05-03 18:35:00,45.7,31.8,30.00,NNE,23,4.9,6.9,58,0.00,,,0.00,WUHU216HW,2013-05-03 23:35:00,
2013-05-03 18:40:00,45.7,31.8,30.00,East,90,3.1,7.8,58,0.00,,,0.00,WUHU216HW,2013-05-03 23:40:00,
2013-05-03 18:45:00,45.7,31.3,29.99,North,0,5.8,7.8,57,0.00,,,0.00,WUHU216HW,2013-05-03 23:45:00,
2013-05-03 18:50:00,45.7,31.3,29.99,NE,45,6.0,8.5,57,0.00,,,0.00,WUHU216HW,2013-05-03 23:50:00,
2013-05-03 18:55:00,45.7,31.3,29.99,NNE,23,5.6,8.5,57,0.00,,,0.00,WUHU216HW,2013-05-03 23:55:00,
2013-05-03 19:00:00,45.9,31.1,29.98,NNE,23,7.8,8.5,56,0.00,,,0.00,WUHU216HW,2013-05-04 00:00:00,
2013-05-03 19:05:00,46.1,30.7,29.98,NNE,23,4.7,8.5,55,0.00,,,0.00,WUHU216HW,2013-05-04 00:05:00,
2013-05-03 19:10:00,45.9,30.6,29.98,NNW,338,4.0,7.8,55,0.00,,,0.00,WUHU216HW,2013-05-04 00:10:00,
2013-05-03 19:15:00,45.9,30.6,29.98,East,90,2.5,8.7,55,0.00,,,0.00,WUHU216HW,2013-05-04 00:15:00,
2013-05-03 19:20:00,45.9,31.1,29.98,NNE,23,4.7,8.7,56,0.00,,,0.00,WUHU216HW,2013-05-04 00:20:00,
2013-05-03 19:25:00,46.1,31.1,29.97,NE,45,3.6,7.4,56,0.00,,,0.00,WUHU216HW,2013-05-04 00:25:00,
2013-05-03 19:30:00,46.3,31.3,29.98,NNE,23,2.0,8.1,56,0.00,,,0.00,WUHU216HW,2013-05-04 00:30:00,
2013-05-03 19:35:00,46.3,30.9,29.98,ENE,68,8.5,8.5,55,0.00,,,0.00,WUHU216HW,2013-05-04 00:35:00,
2013-05-03 19:40:00,46.1,30.7,29.98,NE,45,3.8,8.5,55,0.00,,,0.00,WUHU216HW,2013-05-04 00:40:00,
2013-05-03 19:45:00,46.1,31.1,29.99,North,0,4.5,6.9,56,0.00,,,0.00,WUHU216HW,2013-05-04 00:45:00,
2013-05-03 19:50:00,46.1,31.1,29.98,NE,45,3.8,7.8,56,0.00,,,0.00,WUHU216HW,2013-05-04 00:50:00,
2013-05-03 19:55:00,45.9,31.5,29.98,North,0,5.6,7.8,57,0.00,,,0.00,WUHU216HW,2013-05-04 00:55:00,
2013-05-03 20:00:00,45.7,31.8,29.99,East,90,5.4,7.6,58,0.00,,,0.00,WUHU216HW,2013-05-04 01:00:00,
2013-05-03 20:05:00,45.2,32.1,29.99,NNE,23,4.9,7.6,60,0.00,,,0.00,WUHU216HW,2013-05-04 01:05:00,
2013-05-03 20:10:00,44.6,32.0,29.99,ENE,68,3.4,7.8,61,0.00,,,0.00,WUHU216HW,2013-05-04 01:10:00,
2013-05-03 20:15:00,44.5,32.7,29.99,North,0,2.5,7.8,63,0.00,,,0.00,WUHU216HW,2013-05-04 01:15:00,
2013-05-03 20:20:00,44.3,32.0,29.99,North,0,4.5,7.4,62,0.00,,,0.00,WUHU216HW,2013-05-04 01:20:00,
2013-05-03 20:25:00,43.9,31.3,29.99,NNE,23,5.8,9.4,61,0.00,,,0.00,WUHU216HW,2013-05-04 01:25:00,
2013-05-03 20:30:00,43.9,31.8,29.99,NE,45,2.5,9.4,62,0.00,,,0.00,WUHU216HW,2013-05-04 01:30:00,
2013-05-03 20:35:00,43.7,32.0,29.99,NE,45,4.5,6.0,63,0.00,,,0.00,WUHU216HW,2013-05-04 01:35:00,
2013-05-03 20:40:00,43.6,31.8,30.00,NNE,23,3.8,5.8,63,0.00,,,0.00,WUHU216HW,2013-05-04 01:40:00,
2013-05-03 20:45:00,43.6,31.8,30.00,NNE,23,3.8,4.9,63,0.00,,,0.00,WUHU216HW,2013-05-04 01:45:00,
2013-05-03 20:50:00,43.4,31.6,29.99,North,0,4.0,6.0,63,0.00,,,0.00,WUHU216HW,2013-05-04 01:50:00,
2013-05-03 20:55:00,43.2,31.4,29.99,NNE,23,5.4,6.3,63,0.00,,,0.00,WUHU216HW,2013-05-04 01:55:00,
2013-05-03 21:00:00,43.2,31.4,29.99,NE,45,6.3,7.4,63,0.00,,,0.00,WUHU216HW,2013-05-04 02:00:00,
2013-05-03 21:05:00,43.0,31.2,29.99,North,0,8.3,8.3,63,0.00,,,0.00,WUHU216HW,2013-05-04 02:05:00,
2013-05-03 21:10:00,42.8,31.1,29.99,NNE,23,5.4,8.3,63,0.00,,,0.00,WUHU216HW,2013-05-04 02:10:00,
2013-05-03 21:15:00,42.8,30.7,29.99,NNE,23,4.9,7.8,62,0.00,,,0.00,WUHU216HW,2013-05-04 02:15:00,
2013-05-03 21:20:00,42.8,30.7,29.99,NNE,23,4.0,7.8,62,0.00,,,0.00,WUHU216HW,2013-05-04 02:20:00,
2013-05-03 21:25:00,42.8,29.9,29.99,NE,45,6.5,7.8,60,0.00,,,0.00,WUHU216HW,2013-05-04 02:25:00,
2013-05-03 21:30:00,42.8,29.4,29.99,NNW,338,5.8,8.5,59,0.00,,,0.00,WUHU216HW,2013-05-04 02:30:00,
2013-05-03 21:35:00,42.7,29.3,29.98,East,90,7.4,10.3,59,0.00,,,0.00,WUHU216HW,2013-05-04 02:35:00,
2013-05-03 21:40:00,42.5,29.5,29.98,East,90,4.7,10.3,60,0.00,,,0.00,WUHU216HW,2013-05-04 02:40:00,
2013-05-03 21:45:00,42.3,29.4,29.98,ENE,68,3.8,8.5,60,0.00,,,0.00,WUHU216HW,2013-05-04 02:45:00,
2013-05-03 21:50:00,42.3,29.8,29.98,North,0,2.9,8.5,61,0.00,,,0.00,WUHU216HW,2013-05-04 02:50:00,
2013-05-03 21:55:00,42.1,30.0,29.98,North,0,5.4,9.2,62,0.00,,,0.00,WUHU216HW,2013-05-04 02:55:00,
2013-05-03 22:00:00,42.1,30.0,29.98,NNE,23,4.5,11.0,62,0.00,,,0.00,WUHU216HW,2013-05-04 03:00:00,
2013-05-03 22:05:00,41.9,30.3,29.98,North,0,4.7,11.0,63,0.00,,,0.00,WUHU216HW,2013-05-04 03:05:00,
2013-05-03 22:10:00,41.8,30.1,29.98,NNE,23,6.3,8.1,63,0.00,,,0.00,WUHU216HW,2013-05-04 03:10:00,
2013-05-03 22:15:00,41.8,30.4,29.98,NNE,23,4.0,7.8,64,0.00,,,0.00,WUHU216HW,2013-05-04 03:15:00,
2013-05-03 22:20:00,41.6,30.7,29.97,ENE,68,3.4,7.8,65,0.00,,,0.00,WUHU216HW,2013-05-04 03:20:00,
2013-05-03 22:25:00,41.4,30.9,29.97,NNE,23,4.9,9.2,66,0.00,,,0.00,WUHU216HW,2013-05-04 03:25:00,
2013-05-03 22:30:00,41.4,31.2,29.98,NNE,23,8.3,9.2,67,0.00,,,0.00,WUHU216HW,2013-05-04 03:30:00,
2013-05-03 22:35:00,41.2,31.1,29.98,North,0,3.1,8.3,67,0.00,,,0.00,WUHU216HW,2013-05-04 03:35:00,
2013-05-03 22:40:00,41.2,31.5,29.98,NE,45,3.6,7.8,68,0.00,,,0.00,WUHU216HW,2013-05-04 03:40:00,
2013-05-03 22:45:00,41.0,31.7,29.98,NNE,23,7.8,9.2,69,0.00,,,0.00,WUHU216HW,2013-05-04 03:45:00,
2013-05-03 22:50:00,40.7,31.3,29.98,ENE,68,7.2,9.2,69,0.00,,,0.00,WUHU216HW,2013-05-04 03:50:00,
2013-05-03 22:55:00,40.7,31.7,29.99,East,90,6.3,9.2,70,0.00,,,0.00,WUHU216HW,2013-05-04 03:55:00,
2013-05-03 23:00:00,40.7,31.7,29.99,NNE,23,7.4,9.2,70,0.00,,,0.00,WUHU216HW,2013-05-04 04:00:00,
2013-05-03 23:01:00,40.5,31.5,29.99,NE,45,6.9,9.2,70,0.00,,,0.00,WUHU216HW,2013-05-04 04:01:00,
2013-05-03 23:06:00,40.5,31.5,29.98,NE,45,4.3,9.2,70,0.00,,,0.00,WUHU216HW,2013-05-04 04:06:00,
2013-05-03 23:11:00,40.3,31.3,29.98,North,0,6.0,8.9,70,0.00,,,0.00,WUHU216HW,2013-05-04 04:11:00,
2013-05-03 23:16:00,40.3,31.3,29.98,ENE,68,4.5,8.9,70,0.00,,,0.00,WUHU216HW,2013-05-04 04:16:00,
2013-05-03 23:21:00,40.1,31.5,29.99,NNE,23,4.3,6.7,71,0.00,,,0.00,WUHU216HW,2013-05-04 04:21:00,
2013-05-03 23:26:00,40.0,31.3,29.99,East,90,4.5,9.4,71,0.00,,,0.00,WUHU216HW,2013-05-04 04:26:00,
2013-05-03 23:31:00,40.0,31.3,29.98,NNE,23,5.4,9.4,71,0.00,,,0.00,WUHU216HW,2013-05-04 04:31:00,
2013-05-03 23:36:00,40.0,31.3,29.98,North,0,6.5,8.5,71,0.00,,,0.00,WUHU216HW,2013-05-04 04:36:00,
2013-05-03 23:41:00,39.8,31.2,29.97,NE,45,7.2,7.8,71,0.00,,,0.00,WUHU216HW,2013-05-04 04:41:00,
2013-05-03 23:46:00,39.6,31.3,29.97,NE,45,4.0,8.9,72,0.00,,,0.00,WUHU216HW,2013-05-04 04:46:00,
2013-05-03 23:51:00,39.6,31.3,29.97,NNE,23,8.1,9.2,72,0.00,,,0.00,WUHU216HW,2013-05-04 04:51:00,
2013-05-03 23:56:00,39.6,31.3,29.97,North,0,6.7,9.2,72,0.00,,,0.00,WUHU216HW,2013-05-04 04:56:00,